Time;durP1;ratioP1;P1;durP2;ratioP2;P2;SDS_P1;SDS_P2;PMS_P1;PMS_P2;Temp;Humidity;BMP_temperature;BMP_pressure;BME280_temperature;BME280_humidity;BME280_pressure;Samples;Min_cycle;Max_cycle;Signal;HPM_P1;HPM_P2
2021/12/28 00:00:23;;;;;;;0.20;0.20;;;6.40;99.90;;;;;;5018595;28;20487;-91
2021/12/28 00:03:12;;;;;;;0.10;0.10;;;6.50;99.90;;;;;;5020457;28;20025;-92
2021/12/28 00:05:49;;;;;;;0.85;0.82;;;6.40;99.90;;;;;;5020432;28;20749;-92
2021/12/28 00:08:28;;;;;;;0.43;0.28;;;6.40;99.90;;;;;;5019997;28;20076;-92
2021/12/28 00:10:57;;;;;;;0.20;0.20;;;6.30;99.90;;;;;;5020258;28;20093;-92
2021/12/28 00:13:37;;;;;;;0.10;0.10;;;6.30;99.90;;;;;;5019590;28;20474;-91
2021/12/28 00:18:34;;;;;;;0.20;0.20;;;6.20;99.90;;;;;;5034854;28;20028;-92
2021/12/28 00:21:12;;;;;;;0.20;0.20;;;6.30;99.90;;;;;;5019349;28;20433;-92
2021/12/28 00:23:50;;;;;;;0.13;0.13;;;6.20;99.90;;;;;;5020539;28;20017;-92
2021/12/28 00:26:20;;;;;;;0.13;0.13;;;6.20;99.90;;;;;;5021427;28;20045;-92
2021/12/28 00:29:04;;;;;;;0.55;0.55;;;6.30;99.90;;;;;;5022031;28;20024;-91
2021/12/28 00:31:38;;;;;;;0.20;0.20;;;6.30;99.90;;;;;;5019610;28;20033;-91
2021/12/28 00:34:03;;;;;;;0.20;0.20;;;6.40;99.90;;;;;;5020065;28;20025;-91
2021/12/28 00:36:44;;;;;;;0.20;0.20;;;6.40;99.90;;;;;;5029737;28;20044;-92
2021/12/28 00:39:53;;;;;;;0.20;0.20;;;6.60;99.90;;;;;;5027051;28;20490;-91
2021/12/28 00:42:45;;;;;;;0.20;0.20;;;6.70;99.90;;;;;;5036222;28;20033;-92
2021/12/28 00:45:32;;;;;;;0.10;0.10;;;6.60;99.90;;;;;;5019504;28;20029;-91
2021/12/28 00:48:14;;;;;;;0.10;0.10;;;6.40;99.90;;;;;;5018972;28;20057;-91
2021/12/28 00:50:40;;;;;;;0.20;0.20;;;6.40;99.90;;;;;;5018556;28;20060;-92
2021/12/28 00:53:10;;;;;;;0.20;0.20;;;6.40;99.90;;;;;;5018425;28;20501;-92
2021/12/28 00:55:36;;;;;;;0.10;0.10;;;6.40;99.90;;;;;;5016511;28;20037;-92
2021/12/28 00:58:02;;;;;;;0.20;0.20;;;6.20;99.90;;;;;;5016712;28;20025;-91
2021/12/28 01:00:30;;;;;;;0.38;0.38;;;6.20;99.90;;;;;;5016479;28;20025;-92
2021/12/28 01:02:58;;;;;;;0.10;0.10;;;6.10;99.90;;;;;;5016738;28;20025;-91
2021/12/28 01:05:24;;;;;;;0.20;0.20;;;6.10;99.90;;;;;;5016767;28;20083;-92
2021/12/28 01:07:50;;;;;;;0.75;0.75;;;6.00;99.90;;;;;;5017301;28;20026;-92
2021/12/28 01:10:19;;;;;;;0.20;0.20;;;6.10;99.90;;;;;;5018950;28;20037;-92
2021/12/28 01:12:46;;;;;;;0.20;0.20;;;6.20;99.90;;;;;;5017950;28;20462;-92
2021/12/28 01:15:13;;;;;;;0.20;0.20;;;6.20;99.90;;;;;;5017696;28;20079;-92
2021/12/28 01:17:39;;;;;;;0.20;0.20;;;6.20;99.90;;;;;;5016311;28;20028;-92
2021/12/28 01:20:08;;;;;;;0.20;0.20;;;6.30;99.90;;;;;;5016560;28;20021;-92
2021/12/28 01:22:37;;;;;;;0.20;0.20;;;6.20;99.90;;;;;;5016459;28;20060;-91
2021/12/28 01:25:04;;;;;;;0.20;0.20;;;6.10;99.90;;;;;;5017026;28;20112;-91
2021/12/28 01:27:30;;;;;;;0.20;0.20;;;6.20;99.90;;;;;;5016178;28;20026;-91
2021/12/28 01:29:58;;;;;;;0.20;0.20;;;6.30;99.90;;;;;;5016321;28;20032;-92
2021/12/28 01:32:24;;;;;;;0.20;0.20;;;6.20;99.90;;;;;;5016065;28;20028;-91
2021/12/28 01:34:50;;;;;;;0.20;0.20;;;6.20;99.90;;;;;;5016158;28;20021;-91
2021/12/28 01:37:15;;;;;;;0.20;0.20;;;6.20;99.90;;;;;;5015722;28;20029;-92
2021/12/28 01:39:41;;;;;;;0.20;0.20;;;6.10;99.90;;;;;;5015866;28;20072;-92
2021/12/28 01:42:07;;;;;;;0.20;0.20;;;6.00;99.90;;;;;;5015816;28;20076;-92
2021/12/28 01:44:34;;;;;;;0.20;0.20;;;6.00;99.90;;;;;;5015988;28;20041;-91
2021/12/28 01:47:01;;;;;;;0.20;0.20;;;5.90;99.90;;;;;;5015492;28;20175;-91
2021/12/28 01:49:27;;;;;;;0.20;0.20;;;5.80;99.90;;;;;;5015589;28;20029;-91
2021/12/28 01:51:53;;;;;;;0.10;0.10;;;5.80;99.90;;;;;;5015516;28;20402;-92
2021/12/28 01:54:27;;;;;;;0.20;0.20;;;5.90;99.90;;;;;;5015847;28;20017;-92
2021/12/28 01:56:53;;;;;;;0.30;0.30;;;5.80;99.90;;;;;;5015646;28;20049;-91
2021/12/28 01:59:21;;;;;;;0.20;0.20;;;5.70;99.90;;;;;;5015758;28;20053;-91
2021/12/28 02:01:48;;;;;;;0.20;0.20;;;5.60;99.90;;;;;;5015490;28;20025;-91
2021/12/28 02:04:21;;;;;;;0.20;0.20;;;5.50;99.90;;;;;;5015609;28;20021;-91
2021/12/28 02:06:48;;;;;;;0.20;0.20;;;5.50;99.90;;;;;;5014572;28;20063;-92
2021/12/28 02:09:14;;;;;;;0.20;0.20;;;5.40;99.90;;;;;;5015613;28;20029;-91
2021/12/28 02:11:41;;;;;;;0.10;0.10;;;5.40;99.90;;;;;;5015613;28;20029;-92
2021/12/28 02:14:08;;;;;;;0.22;0.22;;;5.50;99.90;;;;;;5015709;28;20022;-91
2021/12/28 02:16:40;;;;;;;0.20;0.20;;;5.40;99.90;;;;;;5015262;28;20046;-91
2021/12/28 02:19:08;;;;;;;0.20;0.20;;;5.50;99.90;;;;;;5015706;28;20022;-91
2021/12/28 02:21:34;;;;;;;0.20;0.20;;;5.40;99.90;;;;;;5015540;28;20445;-92
2021/12/28 02:24:03;;;;;;;0.25;0.25;;;5.30;99.90;;;;;;5015606;28;20030;-91
2021/12/28 02:26:29;;;;;;;0.28;0.28;;;5.20;99.90;;;;;;5015672;28;20110;-92
2021/12/28 02:28:55;;;;;;;0.20;0.20;;;5.10;99.90;;;;;;5016462;28;20068;-91
2021/12/28 02:31:21;;;;;;;0.20;0.20;;;5.00;99.90;;;;;;5015805;28;20033;-91
2021/12/28 02:33:48;;;;;;;0.20;0.20;;;5.00;99.90;;;;;;5015633;28;20544;-91
2021/12/28 02:36:15;;;;;;;0.20;0.20;;;5.10;99.90;;;;;;5014611;28;20112;-91
2021/12/28 02:38:41;;;;;;;0.20;0.20;;;5.00;99.90;;;;;;5014921;28;20048;-91
2021/12/28 02:41:09;;;;;;;0.20;0.20;;;5.00;99.90;;;;;;5014748;28;20018;-92
2021/12/28 02:43:35;;;;;;;0.45;0.45;;;4.90;99.90;;;;;;5015023;28;20017;-91
2021/12/28 02:46:05;;;;;;;0.30;0.30;;;5.00;99.90;;;;;;5014528;28;20030;-92
2021/12/28 02:48:32;;;;;;;0.20;0.20;;;5.00;99.90;;;;;;5015302;28;20037;-91
2021/12/28 02:51:12;;;;;;;0.30;0.30;;;5.10;99.90;;;;;;5014841;28;20112;-91
2021/12/28 02:53:39;;;;;;;0.20;0.20;;;4.90;99.90;;;;;;5014938;28;20507;-92
2021/12/28 02:56:06;;;;;;;0.22;0.22;;;4.90;99.90;;;;;;5014511;28;20026;-92
2021/12/28 02:58:49;;;;;;;0.20;0.20;;;4.70;99.90;;;;;;5015107;28;20032;-91
2021/12/28 03:01:19;;;;;;;0.32;0.32;;;4.70;99.90;;;;;;5014470;28;20101;-91
2021/12/28 03:03:47;;;;;;;0.20;0.20;;;4.70;99.90;;;;;;5014864;28;20104;-91
2021/12/28 03:06:15;;;;;;;0.20;0.20;;;4.80;99.90;;;;;;5014751;28;20091;-92
2021/12/28 03:08:44;;;;;;;0.20;0.20;;;4.70;99.90;;;;;;5014970;28;20036;-92
2021/12/28 03:11:11;;;;;;;0.20;0.20;;;4.60;99.90;;;;;;5014914;28;20022;-91
2021/12/28 03:13:40;;;;;;;0.20;0.20;;;4.70;99.90;;;;;;5015207;28;20021;-91
2021/12/28 03:16:06;;;;;;;0.20;0.20;;;4.70;99.90;;;;;;5014824;28;20025;-91
2021/12/28 03:18:33;;;;;;;0.20;0.20;;;4.80;99.90;;;;;;5018827;28;20021;-91
2021/12/28 03:20:59;;;;;;;0.20;0.20;;;5.00;99.90;;;;;;5018531;28;20067;-91
2021/12/28 03:23:28;;;;;;;0.20;0.20;;;4.90;99.90;;;;;;5018568;28;20060;-92
2021/12/28 03:25:55;;;;;;;0.20;0.20;;;4.90;99.90;;;;;;5018184;28;20030;-92
2021/12/28 03:28:27;;;;;;;0.20;0.20;;;4.80;99.90;;;;;;5018503;28;20585;-91
2021/12/28 03:30:54;;;;;;;0.20;0.20;;;4.80;99.90;;;;;;5025625;28;20117;-91
2021/12/28 03:33:22;;;;;;;0.20;0.20;;;4.70;99.90;;;;;;5030045;28;20052;-91
2021/12/28 03:35:48;;;;;;;0.20;0.20;;;4.70;99.90;;;;;;5018553;28;20025;-92
2021/12/28 03:40:43;;;;;;;0.30;0.30;;;4.70;99.90;;;;;;5014203;28;20092;-74
2021/12/28 03:43:09;;;;;;;0.20;0.20;;;4.80;99.90;;;;;;5014362;28;20096;-73
2021/12/28 03:45:35;;;;;;;0.20;0.20;;;4.70;99.90;;;;;;4997657;28;20030;-73
2021/12/28 03:48:01;;;;;;;0.20;0.20;;;4.80;99.90;;;;;;5014025;28;20053;-73
2021/12/28 03:50:26;;;;;;;0.20;0.20;;;4.80;99.90;;;;;;5015129;28;20069;-72
2021/12/28 03:52:56;;;;;;;0.20;0.20;;;4.70;99.90;;;;;;5014784;28;20026;-73
2021/12/28 03:55:26;;;;;;;0.65;0.65;;;4.70;99.90;;;;;;5013715;28;20057;-73
2021/12/28 03:57:53;;;;;;;0.20;0.20;;;4.60;99.90;;;;;;5015126;28;20097;-73
2021/12/28 04:00:21;;;;;;;2.35;2.17;;;4.50;99.90;;;;;;5014843;28;20109;-73
2021/12/28 04:02:47;;;;;;;0.20;0.20;;;4.30;99.90;;;;;;5013433;28;20026;-73
2021/12/28 04:05:16;;;;;;;0.30;0.30;;;4.30;99.90;;;;;;5015071;28;20442;-73
2021/12/28 04:07:42;;;;;;;0.75;0.55;;;4.40;99.90;;;;;;5013625;28;20018;-73
2021/12/28 04:10:11;;;;;;;0.20;0.20;;;4.40;99.90;;;;;;5015489;28;20566;-73
2021/12/28 04:12:37;;;;;;;0.20;0.20;;;4.40;99.90;;;;;;5014696;28;20385;-73
2021/12/28 04:15:05;;;;;;;0.20;0.20;;;4.30;99.90;;;;;;5015272;28;20029;-73
2021/12/28 04:17:33;;;;;;;0.38;0.38;;;4.20;99.90;;;;;;5014485;28;20018;-73
2021/12/28 04:19:59;;;;;;;0.20;0.20;;;4.30;99.90;;;;;;5013150;28;20079;-73
2021/12/28 04:22:25;;;;;;;0.20;0.20;;;4.30;99.90;;;;;;5014595;28;20105;-74
2021/12/28 04:24:51;;;;;;;0.20;0.20;;;4.20;99.90;;;;;;5013205;28;20123;-74
2021/12/28 04:27:16;;;;;;;0.20;0.20;;;4.30;99.90;;;;;;5014284;28;20034;-74
2021/12/28 04:29:42;;;;;;;0.30;0.30;;;4.30;99.90;;;;;;5013513;28;20386;-74
2021/12/28 04:32:08;;;;;;;0.20;0.20;;;4.30;99.90;;;;;;5014398;28;20033;-74
2021/12/28 04:34:34;;;;;;;0.20;0.20;;;4.30;99.90;;;;;;5014354;28;20022;-74
2021/12/28 04:37:00;;;;;;;0.20;0.20;;;4.30;99.90;;;;;;5012827;28;20105;-74
2021/12/28 04:39:25;;;;;;;0.20;0.20;;;4.40;99.90;;;;;;5014349;28;20038;-74
2021/12/28 04:41:51;;;;;;;0.30;0.30;;;4.40;99.90;;;;;;5014294;28;20034;-74
2021/12/28 04:44:23;;;;;;;0.30;0.30;;;4.50;99.90;;;;;;5014214;28;20026;-73
2021/12/28 04:46:49;;;;;;;0.30;0.30;;;4.60;99.90;;;;;;5013927;28;20491;-73
2021/12/28 04:49:16;;;;;;;0.20;0.20;;;4.70;99.90;;;;;;5013977;28;20073;-74
2021/12/28 04:51:42;;;;;;;0.20;0.20;;;4.80;99.90;;;;;;5013972;28;20057;-74
2021/12/28 04:54:12;;;;;;;0.20;0.20;;;4.90;99.90;;;;;;5012787;28;20508;-73
2021/12/28 04:56:40;;;;;;;0.20;0.20;;;5.00;99.90;;;;;;5013736;28;20018;-74
2021/12/28 04:59:06;;;;;;;0.20;0.20;;;5.00;99.90;;;;;;5013735;28;20029;-74
2021/12/28 05:01:33;;;;;;;0.20;0.20;;;4.80;99.90;;;;;;5013627;28;20045;-74
2021/12/28 05:03:59;;;;;;;0.28;0.28;;;4.80;99.90;;;;;;5013767;28;20022;-74
2021/12/28 05:06:25;;;;;;;0.30;0.30;;;4.80;99.90;;;;;;5013621;28;20100;-74
2021/12/28 05:08:51;;;;;;;0.30;0.30;;;4.80;99.90;;;;;;5012650;28;20105;-73
2021/12/28 05:11:17;;;;;;;0.20;0.20;;;4.70;99.90;;;;;;5013470;28;20508;-73
2021/12/28 05:13:44;;;;;;;0.20;0.20;;;4.80;99.90;;;;;;5013699;28;20022;-74
2021/12/28 05:16:14;;;;;;;0.30;0.30;;;4.70;99.90;;;;;;5012264;28;20022;-74
2021/12/28 05:18:39;;;;;;;0.20;0.20;;;4.50;99.90;;;;;;5013384;28;20025;-73
2021/12/28 05:21:05;;;;;;;0.20;0.20;;;4.60;99.90;;;;;;5013432;28;20359;-74
2021/12/28 05:23:31;;;;;;;0.20;0.20;;;4.70;99.90;;;;;;5012298;28;20018;-74
2021/12/28 05:25:57;;;;;;;0.20;0.20;;;4.70;99.90;;;;;;5013104;28;20367;-74
2021/12/28 05:28:23;;;;;;;0.20;0.20;;;4.60;99.90;;;;;;5012178;28;20033;-73
2021/12/28 05:30:48;;;;;;;0.28;0.28;;;4.50;99.90;;;;;;5012122;28;20407;-74
2021/12/28 05:33:14;;;;;;;0.20;0.20;;;4.60;99.90;;;;;;5013111;28;20041;-74
2021/12/28 05:35:40;;;;;;;0.20;0.20;;;4.60;99.90;;;;;;5013180;28;20022;-74
2021/12/28 05:38:06;;;;;;;0.30;0.30;;;4.30;99.90;;;;;;5013703;28;20034;-74
2021/12/28 05:40:31;;;;;;;0.30;0.30;;;4.40;99.90;;;;;;5012696;28;20030;-74
2021/12/28 05:42:57;;;;;;;0.20;0.20;;;4.40;99.90;;;;;;5013033;28;20034;-74
2021/12/28 05:45:23;;;;;;;0.47;0.47;;;4.50;99.90;;;;;;5013071;28;20022;-74
2021/12/28 05:47:49;;;;;;;0.20;0.20;;;4.60;99.90;;;;;;5012837;28;20061;-74
2021/12/28 05:50:14;;;;;;;0.20;0.20;;;4.70;99.90;;;;;;5012878;28;20025;-74
2021/12/28 05:52:40;;;;;;;0.60;0.60;;;4.60;99.90;;;;;;5012918;28;20033;-74
2021/12/28 05:55:07;;;;;;;0.20;0.20;;;4.60;99.90;;;;;;5011742;28;20117;-74
2021/12/28 05:57:33;;;;;;;0.30;0.30;;;4.70;99.90;;;;;;5012737;28;20022;-74
2021/12/28 05:59:59;;;;;;;0.30;0.30;;;4.80;99.90;;;;;;5012790;28;20021;-74
2021/12/28 06:02:25;;;;;;;0.30;0.30;;;4.90;99.90;;;;;;5011564;28;20552;-74
2021/12/28 06:04:50;;;;;;;0.20;0.20;;;4.90;99.90;;;;;;5011379;28;20037;-74
2021/12/28 06:07:16;;;;;;;0.20;0.20;;;4.90;99.90;;;;;;5011309;28;20072;-74
2021/12/28 06:09:42;;;;;;;0.22;0.22;;;4.90;99.90;;;;;;5011633;28;20051;-73
2021/12/28 06:12:08;;;;;;;0.30;0.30;;;4.90;99.90;;;;;;5011404;28;20025;-74
2021/12/28 06:14:34;;;;;;;0.20;0.20;;;4.90;99.90;;;;;;5011692;28;20156;-74
2021/12/28 06:17:00;;;;;;;0.20;0.20;;;4.80;99.90;;;;;;5012341;28;20104;-74
2021/12/28 06:19:26;;;;;;;0.20;0.20;;;4.70;99.90;;;;;;5012463;28;20231;-74
2021/12/28 06:21:51;;;;;;;0.25;0.25;;;4.80;99.90;;;;;;5012537;28;20033;-74
2021/12/28 06:24:17;;;;;;;0.30;0.30;;;5.00;99.90;;;;;;5011327;28;20025;-74
2021/12/28 06:26:44;;;;;;;0.20;0.20;;;4.90;99.90;;;;;;5011097;28;20389;-74
2021/12/28 06:29:11;;;;;;;0.30;0.30;;;4.80;99.90;;;;;;5012279;28;20030;-74
2021/12/28 06:31:37;;;;;;;0.25;0.25;;;4.90;99.90;;;;;;5012261;28;20549;-74
2021/12/28 06:34:04;;;;;;;0.38;0.38;;;5.00;99.90;;;;;;5011638;28;20054;-74
2021/12/28 06:36:30;;;;;;;0.30;0.30;;;5.10;99.90;;;;;;5011227;28;20021;-73
2021/12/28 06:38:56;;;;;;;0.20;0.20;;;5.00;99.90;;;;;;5012474;28;20030;-73
2021/12/28 06:41:22;;;;;;;0.52;0.52;;;5.10;99.90;;;;;;5011096;28;20025;-73
2021/12/28 06:43:49;;;;;;;0.30;0.30;;;5.00;99.90;;;;;;5011035;28;20032;-72
2021/12/28 06:46:15;;;;;;;0.22;0.22;;;5.00;99.90;;;;;;5012234;28;20474;-72
2021/12/28 06:48:41;;;;;;;0.30;0.30;;;4.90;99.90;;;;;;5012483;28;20389;-72
2021/12/28 06:51:07;;;;;;;0.30;0.30;;;4.80;99.90;;;;;;5012377;28;20022;-72
2021/12/28 06:53:34;;;;;;;0.20;0.20;;;4.90;99.90;;;;;;5014907;28;20022;-72
2021/12/28 06:56:00;;;;;;;0.20;0.20;;;5.10;99.90;;;;;;5016147;28;20030;-72
2021/12/28 06:58:25;;;;;;;0.30;0.30;;;5.10;99.90;;;;;;5014849;28;20030;-72
2021/12/28 07:00:51;;;;;;;0.22;0.22;;;5.20;99.90;;;;;;5014902;28;20026;-72
2021/12/28 07:03:17;;;;;;;0.20;0.20;;;5.00;99.90;;;;;;5016203;28;20057;-72
2021/12/28 07:05:43;;;;;;;0.20;0.20;;;5.00;99.90;;;;;;5016082;28;20112;-73
2021/12/28 07:08:09;;;;;;;0.30;0.30;;;5.10;99.90;;;;;;5014797;28;20397;-72
2021/12/28 07:10:35;;;;;;;0.20;0.20;;;5.10;99.90;;;;;;5015950;28;20030;-73
2021/12/28 07:13:00;;;;;;;0.30;0.30;;;5.20;99.90;;;;;;5015865;28;20026;-73
2021/12/28 07:15:26;;;;;;;0.20;0.20;;;5.40;99.90;;;;;;5014554;28;20485;-73
2021/12/28 07:17:52;;;;;;;0.25;0.25;;;5.50;99.90;;;;;;5016141;28;20413;-73
2021/12/28 07:20:18;;;;;;;0.20;0.20;;;5.70;99.90;;;;;;5015762;28;20021;-73
2021/12/28 07:22:44;;;;;;;0.30;0.30;;;5.70;99.90;;;;;;5015862;28;20022;-73
2021/12/28 07:25:11;;;;;;;0.20;0.20;;;5.70;99.90;;;;;;5015701;28;20034;-72
2021/12/28 07:27:38;;;;;;;0.30;0.30;;;5.80;99.90;;;;;;5015687;28;20034;-73
2021/12/28 07:30:07;;;;;;;0.20;0.20;;;5.70;99.90;;;;;;5014436;28;20109;-73
2021/12/28 07:32:33;;;;;;;0.35;0.35;;;5.40;99.90;;;;;;5015703;28;20025;-73
2021/12/28 07:34:59;;;;;;;0.90;0.88;;;5.30;99.90;;;;;;5015611;28;20157;-72
2021/12/28 07:37:25;;;;;;;2.65;2.15;;;4.80;99.90;;;;;;5015596;28;20093;-72
2021/12/28 07:39:53;;;;;;;0.40;0.40;;;4.40;99.90;;;;;;5015315;28;20486;-72
2021/12/28 07:42:19;;;;;;;0.30;0.30;;;4.30;99.90;;;;;;5015478;28;20109;-72
2021/12/28 07:44:46;;;;;;;0.20;0.20;;;4.40;99.90;;;;;;5014134;28;20374;-72
2021/12/28 07:47:12;;;;;;;0.30;0.30;;;4.50;99.90;;;;;;5015340;28;20310;-73
2021/12/28 07:49:38;;;;;;;0.30;0.30;;;4.40;99.90;;;;;;5015373;28;20025;-72
2021/12/28 07:52:05;;;;;;;0.30;0.30;;;4.40;99.90;;;;;;5015202;28;20033;-72
2021/12/28 07:54:30;;;;;;;0.30;0.30;;;4.60;99.90;;;;;;5015207;28;20496;-72
2021/12/28 07:56:56;;;;;;;0.20;0.20;;;4.90;99.90;;;;;;5015148;28;20034;-72
2021/12/28 07:59:22;;;;;;;0.30;0.30;;;5.00;99.90;;;;;;5013766;28;20033;-72
2021/12/28 08:01:48;;;;;;;0.20;0.20;;;5.00;99.90;;;;;;5015183;28;20285;-72
2021/12/28 08:04:13;;;;;;;0.20;0.20;;;5.10;99.90;;;;;;5013647;28;20030;-72
2021/12/28 08:06:39;;;;;;;0.68;0.50;;;5.30;99.90;;;;;;5014019;28;20072;-72
2021/12/28 08:09:05;;;;;;;0.55;0.50;;;5.30;99.90;;;;;;5013554;28;20033;-72
2021/12/28 08:11:31;;;;;;;0.20;0.20;;;5.50;99.90;;;;;;5014983;28;20117;-73
2021/12/28 08:13:56;;;;;;;0.50;0.50;;;5.60;99.90;;;;;;5014804;28;20056;-73
2021/12/28 08:16:22;;;;;;;0.20;0.20;;;5.30;99.90;;;;;;5014883;28;20022;-74
2021/12/28 08:18:48;;;;;;;0.20;0.20;;;5.40;99.90;;;;;;5015093;28;20108;-73
2021/12/28 08:21:14;;;;;;;0.30;0.30;;;5.60;99.90;;;;;;5014892;28;20022;-73
2021/12/28 08:23:40;;;;;;;0.20;0.20;;;5.70;99.90;;;;;;5014672;28;20037;-73
2021/12/28 08:26:05;;;;;;;0.30;0.30;;;5.60;99.90;;;;;;5014816;28;20021;-73
2021/12/28 08:28:31;;;;;;;0.30;0.30;;;5.60;99.90;;;;;;5014622;28;20446;-73
2021/12/28 08:30:57;;;;;;;0.20;0.20;;;5.50;99.90;;;;;;5013826;28;20040;-73
2021/12/28 08:33:23;;;;;;;0.20;0.20;;;5.50;99.90;;;;;;5014679;28;20030;-73
2021/12/28 08:35:49;;;;;;;0.20;0.20;;;5.60;99.90;;;;;;5014473;28;20053;-73
2021/12/28 08:38:15;;;;;;;0.20;0.20;;;5.70;99.90;;;;;;5013265;28;20045;-73
2021/12/28 08:40:44;;;;;;;0.20;0.20;;;5.70;99.90;;;;;;5014350;28;20029;-73
2021/12/28 08:43:11;;;;;;;0.30;0.30;;;5.70;99.90;;;;;;5014442;28;20068;-73
2021/12/28 08:45:40;;;;;;;0.28;0.28;;;5.70;99.90;;;;;;5014327;28;20569;-73
2021/12/28 08:48:10;;;;;;;0.20;0.20;;;5.70;99.90;;;;;;5014477;28;20080;-76
2021/12/28 08:50:37;;;;;;;0.20;0.20;;;5.90;99.90;;;;;;5014312;28;20028;-73
2021/12/28 08:53:04;;;;;;;0.20;0.20;;;6.00;99.90;;;;;;5014194;28;20080;-72
2021/12/28 08:55:30;;;;;;;0.20;0.20;;;6.00;99.90;;;;;;5014172;28;20013;-71
2021/12/28 08:57:55;;;;;;;0.20;0.20;;;6.20;99.90;;;;;;5013982;28;20527;-71
2021/12/28 09:00:25;;;;;;;0.20;0.20;;;6.20;99.90;;;;;;5013858;28;20033;-72
2021/12/28 09:02:52;;;;;;;0.25;0.25;;;6.10;99.90;;;;;;5013974;28;20021;-72
2021/12/28 09:05:18;;;;;;;0.30;0.30;;;6.20;99.90;;;;;;5013950;28;20056;-72
2021/12/28 09:07:44;;;;;;;0.30;0.30;;;6.10;99.90;;;;;;5014128;28;20022;-71
2021/12/28 09:10:11;;;;;;;0.20;0.20;;;6.00;99.90;;;;;;5012914;28;20112;-74
2021/12/28 09:12:38;;;;;;;0.20;0.20;;;6.00;99.90;;;;;;4997213;28;20485;-72
2021/12/28 09:15:07;;;;;;;0.22;0.22;;;6.30;99.90;;;;;;5013139;28;20022;-73
2021/12/28 09:17:35;;;;;;;0.20;0.20;;;6.20;99.90;;;;;;5013692;28;20034;-71
2021/12/28 09:20:05;;;;;;;0.55;0.55;;;6.00;99.90;;;;;;5013619;28;20505;-71
2021/12/28 09:22:31;;;;;;;0.20;0.20;;;5.90;99.90;;;;;;5012092;28;20022;-72
2021/12/28 09:24:57;;;;;;;1.00;0.60;;;6.00;99.90;;;;;;5013456;28;20029;-71
2021/12/28 09:27:23;;;;;;;1.05;0.40;;;5.80;99.90;;;;;;5013550;28;20101;-71
2021/12/28 09:29:49;;;;;;;0.20;0.20;;;5.70;99.90;;;;;;5013305;28;20459;-70
2021/12/28 09:32:16;;;;;;;1.48;1.10;;;5.70;99.90;;;;;;5013412;28;20034;-72
2021/12/28 09:34:44;;;;;;;0.30;0.30;;;5.70;99.90;;;;;;5013341;28;20533;-76
2021/12/28 09:37:10;;;;;;;0.40;0.40;;;5.70;99.90;;;;;;5013495;28;20041;-76
2021/12/28 09:39:36;;;;;;;0.20;0.20;;;5.90;99.90;;;;;;5043513;23;20037;-72
2021/12/28 09:42:03;;;;;;;0.20;0.20;;;6.00;99.90;;;;;;5032510;28;20021;-72
2021/12/28 09:44:32;;;;;;;0.20;0.20;;;6.20;99.90;;;;;;5029501;28;20484;-72
2021/12/28 09:46:59;;;;;;;0.20;0.20;;;6.30;99.90;;;;;;5032265;28;20037;-72
2021/12/28 09:49:27;;;;;;;0.20;0.20;;;6.50;99.90;;;;;;5031269;28;20053;-72
2021/12/28 09:51:54;;;;;;;1.00;1.00;;;6.70;99.90;;;;;;5030775;28;20072;-72
2021/12/28 09:54:24;;;;;;;0.20;0.20;;;6.80;99.90;;;;;;5031302;28;20029;-73
2021/12/28 09:56:50;;;;;;;0.20;0.20;;;6.90;99.90;;;;;;5031033;28;20022;-72
2021/12/28 09:59:15;;;;;;;0.20;0.20;;;6.90;99.90;;;;;;5030775;28;20029;-72
2021/12/28 10:01:41;;;;;;;0.20;0.20;;;6.90;99.90;;;;;;5032189;28;20036;-72
2021/12/28 10:04:07;;;;;;;0.20;0.20;;;6.90;99.90;;;;;;5032123;28;20087;-72
2021/12/28 10:06:33;;;;;;;0.20;0.20;;;6.70;99.90;;;;;;5031971;28;20114;-72
2021/12/28 10:09:12;;;;;;;0.30;0.30;;;6.60;99.90;;;;;;5030434;28;20032;-72
2021/12/28 10:11:48;;;;;;;0.20;0.20;;;6.50;99.90;;;;;;5030730;28;20056;-72
2021/12/28 10:14:23;;;;;;;0.73;0.73;;;6.40;99.90;;;;;;5012395;28;20022;-72
2021/12/28 10:16:53;;;;;;;0.30;0.30;;;6.40;99.90;;;;;;5012327;28;20033;-72
2021/12/28 10:19:37;;;;;;;0.20;0.20;;;6.30;99.90;;;;;;5013910;28;20018;-72
2021/12/28 10:22:26;;;;;;;0.88;0.85;;;6.20;99.90;;;;;;5030496;28;20025;-72
2021/12/28 10:24:57;;;;;;;0.20;0.20;;;6.30;99.90;;;;;;5030504;28;20412;-72
2021/12/28 10:27:25;;;;;;;0.77;0.77;;;6.30;99.90;;;;;;5029329;28;20029;-72
2021/12/28 10:29:52;;;;;;;0.20;0.20;;;6.40;99.90;;;;;;5030334;28;20044;-72
2021/12/28 10:32:20;;;;;;;0.20;0.20;;;6.50;99.90;;;;;;5030028;28;20075;-72
2021/12/28 10:34:55;;;;;;;0.20;0.20;;;6.70;99.90;;;;;;5031864;28;20017;-72
2021/12/28 10:37:24;;;;;;;0.30;0.30;;;6.80;99.90;;;;;;5030153;28;20030;-72
2021/12/28 10:39:53;;;;;;;0.20;0.20;;;6.90;99.90;;;;;;5030161;28;20374;-72
2021/12/28 10:42:41;;;;;;;0.40;0.40;;;6.90;99.90;;;;;;5031695;28;20116;-72
2021/12/28 10:45:09;;;;;;;0.32;0.20;;;7.10;99.90;;;;;;5030408;28;20036;-72
2021/12/28 10:47:35;;;;;;;0.20;0.20;;;7.00;99.90;;;;;;5031541;28;20037;-72
2021/12/28 10:50:18;;;;;;;0.20;0.20;;;6.90;99.90;;;;;;5031498;28;20447;-72
2021/12/28 10:52:49;;;;;;;0.20;0.20;;;6.90;99.90;;;;;;5031289;28;20029;-72
2021/12/28 10:55:25;;;;;;;0.20;0.20;;;6.90;99.90;;;;;;5014051;28;20022;-72
2021/12/28 10:57:51;;;;;;;0.10;0.10;;;6.90;99.90;;;;;;5030508;28;20026;-72
2021/12/28 11:00:30;;;;;;;0.20;0.20;;;6.90;99.90;;;;;;5030361;28;20022;-72
2021/12/28 11:03:19;;;;;;;0.20;0.20;;;6.80;99.90;;;;;;5030236;28;20060;-72
2021/12/28 11:05:51;;;;;;;0.20;0.20;;;6.90;99.90;;;;;;5030170;28;20029;-72
2021/12/28 11:08:18;;;;;;;0.38;0.38;;;7.10;99.90;;;;;;5031421;28;20029;-72
2021/12/28 11:10:44;;;;;;;0.13;0.13;;;7.30;99.90;;;;;;5030091;28;20033;-72
2021/12/28 11:13:12;;;;;;;0.43;0.43;;;7.50;99.90;;;;;;5030112;28;20082;-72
2021/12/28 11:15:46;;;;;;;0.25;0.25;;;7.50;99.90;;;;;;5031289;28;20381;-72
2021/12/28 11:18:34;;;;;;;0.30;0.30;;;7.50;99.90;;;;;;5030220;28;20141;-72
2021/12/28 11:21:20;;;;;;;0.10;0.10;;;7.50;99.90;;;;;;5030417;28;20033;-73
2021/12/28 11:23:49;;;;;;;0.20;0.20;;;7.40;99.90;;;;;;5031082;28;20056;-72
2021/12/28 11:26:33;;;;;;;1.08;0.60;;;7.30;99.90;;;;;;5030163;28;20029;-72
2021/12/28 11:29:02;;;;;;;0.20;0.20;;;7.20;99.90;;;;;;5030160;28;20029;-72
2021/12/28 11:31:52;;;;;;;0.20;0.20;;;7.20;99.90;;;;;;5030067;28;20045;-73
2021/12/28 11:34:24;;;;;;;0.17;0.17;;;7.10;99.90;;;;;;5020987;28;20207;-73
2021/12/28 11:37:06;;;;;;;0.20;0.20;;;7.20;99.90;;;;;;5031479;28;20025;-72
2021/12/28 11:39:35;;;;;;;0.98;0.95;;;7.20;99.90;;;;;;5033554;28;20040;-72
2021/12/28 11:42:02;;;;;;;0.20;0.20;;;7.30;99.90;;;;;;5017345;28;20025;-73
2021/12/28 11:44:29;;;;;;;0.30;0.30;;;7.40;99.90;;;;;;5032636;28;20022;-73
2021/12/28 11:46:57;;;;;;;0.20;0.20;;;7.30;99.90;;;;;;5034465;28;20029;-74
2021/12/28 11:49:27;;;;;;;0.10;0.10;;;7.40;99.90;;;;;;5033493;28;20481;-74
2021/12/28 11:51:58;;;;;;;0.10;0.10;;;7.50;99.90;;;;;;5033448;28;20489;-74
2021/12/28 11:54:25;;;;;;;0.20;0.20;;;7.50;99.90;;;;;;5016908;28;20025;-74
2021/12/28 11:57:00;;;;;;;1.38;1.38;;;7.50;99.90;;;;;;5033353;28;20053;-73
2021/12/28 11:59:28;;;;;;;0.20;0.20;;;7.50;99.90;;;;;;5033421;28;20033;-73
2021/12/28 12:02:09;;;;;;;0.10;0.10;;;7.50;99.90;;;;;;5016775;28;20546;-73
2021/12/28 12:04:34;;;;;;;0.20;0.20;;;7.50;99.90;;;;;;5032417;28;20017;-73
2021/12/28 12:07:16;;;;;;;0.20;0.20;;;7.50;99.90;;;;;;5031315;28;20384;-73
2021/12/28 12:09:54;;;;;;;0.20;0.20;;;7.60;99.90;;;;;;5015555;28;20484;-73
2021/12/28 12:12:29;;;;;;;0.10;0.10;;;7.50;99.90;;;;;;5015739;28;20516;-73
2021/12/28 12:14:56;;;;;;;0.38;0.38;;;7.50;99.90;;;;;;5034296;28;20021;-73
2021/12/28 12:17:28;;;;;;;0.10;0.10;;;7.30;99.90;;;;;;5031931;28;20036;-73
2021/12/28 12:20:00;;;;;;;0.17;0.17;;;7.30;99.90;;;;;;5034248;28;20026;-73
2021/12/28 12:22:48;;;;;;;0.15;0.15;;;7.20;99.90;;;;;;5033010;28;20032;-72
2021/12/28 12:25:23;;;;;;;0.10;0.10;;;7.30;99.90;;;;;;5032872;28;20507;-73
2021/12/28 12:28:05;;;;;;;0.30;0.30;;;7.30;99.90;;;;;;5033935;28;20476;-73
2021/12/28 12:30:34;;;;;;;;;;;7.30;99.90;;;;;;5034553;28;20063;-72
2021/12/28 12:33:07;;;;;;;0.20;0.20;;;7.30;99.90;;;;;;5032734;28;19916;-73
2021/12/28 12:35:33;;;;;;;0.20;0.20;;;7.40;99.90;;;;;;5013140;28;20022;-73
2021/12/28 12:38:14;;;;;;;0.10;0.10;;;7.40;99.90;;;;;;5014076;28;20075;-73
2021/12/28 12:40:59;;;;;;;0.10;0.10;;;7.30;99.90;;;;;;5014161;28;20034;-71
2021/12/28 12:43:41;;;;;;;0.38;0.35;;;7.30;99.90;;;;;;5012898;28;20026;-71
2021/12/28 12:46:12;;;;;;;0.37;0.37;;;7.30;99.90;;;;;;5012613;28;20068;-73
2021/12/28 12:48:39;;;;;;;0.10;0.10;;;7.30;99.90;;;;;;5013246;28;20057;-73
2021/12/28 12:51:22;;;;;;;0.20;0.20;;;7.20;99.90;;;;;;5020874;28;20112;-73
2021/12/28 12:53:53;;;;;;;0.20;0.20;;;7.20;99.90;;;;;;5033646;28;20113;-72
2021/12/28 12:56:38;;;;;;;0.17;0.17;;;7.20;99.90;;;;;;5032305;28;20108;-73
2021/12/28 12:59:20;;;;;;;6.68;1.42;;;7.30;99.90;;;;;;5033489;28;20104;-73
2021/12/28 13:01:46;;;;;;;0.13;0.13;;;7.30;99.90;;;;;;5033099;28;20030;-73
2021/12/28 13:04:27;;;;;;;0.10;0.10;;;7.30;99.90;;;;;;5033476;28;20018;-73
2021/12/28 13:07:11;;;;;;;0.20;0.20;;;7.40;99.90;;;;;;5033013;28;20454;-73
2021/12/28 13:09:40;;;;;;;0.20;0.20;;;7.60;99.90;;;;;;5032072;28;20022;-73
2021/12/28 13:12:08;;;;;;;0.10;0.10;;;7.70;99.90;;;;;;5033342;28;20026;-73